sensor_id;sensor_type;location;lat;lon;timestamp;temperature;humidity
7700;DHT22;3892;47.794;19.126;2022-12-29T00:01:54;9.50;36.60
7700;DHT22;3892;47.794;19.126;2022-12-29T00:04:23;9.50;36.50
7700;DHT22;3892;47.794;19.126;2022-12-29T00:06:52;9.50;36.60
7700;DHT22;3892;47.794;19.126;2022-12-29T00:09:19;9.50;36.30
7700;DHT22;3892;47.794;19.126;2022-12-29T00:11:46;9.50;36.20
7700;DHT22;3892;47.794;19.126;2022-12-29T00:14:15;9.50;36.40
7700;DHT22;3892;47.794;19.126;2022-12-29T00:17:00;9.50;36.30
7700;DHT22;3892;47.794;19.126;2022-12-29T00:19:29;9.50;37.00
7700;DHT22;3892;47.794;19.126;2022-12-29T00:22:14;9.50;36.40
7700;DHT22;3892;47.794;19.126;2022-12-29T00:24:59;9.50;36.30
7700;DHT22;3892;47.794;19.126;2022-12-29T00:27:44;9.50;36.30
7700;DHT22;3892;47.794;19.126;2022-12-29T00:30:29;9.50;36.30
7700;DHT22;3892;47.794;19.126;2022-12-29T00:33:15;9.50;36.40
7700;DHT22;3892;47.794;19.126;2022-12-29T00:36:03;9.50;36.40
7700;DHT22;3892;47.794;19.126;2022-12-29T00:38:31;9.50;36.20
7700;DHT22;3892;47.794;19.126;2022-12-29T00:41:16;9.50;36.30
7700;DHT22;3892;47.794;19.126;2022-12-29T00:44:01;9.50;36.20
7700;DHT22;3892;47.794;19.126;2022-12-29T00:46:36;9.50;36.20
7700;DHT22;3892;47.794;19.126;2022-12-29T00:49:04;9.50;36.10
7700;DHT22;3892;47.794;19.126;2022-12-29T00:51:51;9.50;36.30
7700;DHT22;3892;47.794;19.126;2022-12-29T00:54:19;9.40;36.20
7700;DHT22;3892;47.794;19.126;2022-12-29T00:56:46;9.30;36.20
7700;DHT22;3892;47.794;19.126;2022-12-29T00:59:17;9.30;36.50
7700;DHT22;3892;47.794;19.126;2022-12-29T01:01:45;9.20;36.50
7700;DHT22;3892;47.794;19.126;2022-12-29T01:04:13;9.20;36.70
7700;DHT22;3892;47.794;19.126;2022-12-29T01:06:41;9.10;36.60
7700;DHT22;3892;47.794;19.126;2022-12-29T01:09:09;9.10;36.70
7700;DHT22;3892;47.794;19.126;2022-12-29T01:11:55;9.10;36.80
7700;DHT22;3892;47.794;19.126;2022-12-29T01:14:23;9.00;36.90
7700;DHT22;3892;47.794;19.126;2022-12-29T01:16:50;9.00;37.00
7700;DHT22;3892;47.794;19.126;2022-12-29T01:19:18;8.90;37.00
7700;DHT22;3892;47.794;19.126;2022-12-29T01:21:45;8.90;37.20
7700;DHT22;3892;47.794;19.126;2022-12-29T01:24:15;9.00;37.20
7700;DHT22;3892;47.794;19.126;2022-12-29T01:26:42;9.00;37.20
7700;DHT22;3892;47.794;19.126;2022-12-29T01:29:10;9.00;37.10
7700;DHT22;3892;47.794;19.126;2022-12-29T01:31:37;9.10;37.10
7700;DHT22;3892;47.794;19.126;2022-12-29T01:34:04;9.10;37.00
7700;DHT22;3892;47.794;19.126;2022-12-29T01:36:32;9.10;37.00
7700;DHT22;3892;47.794;19.126;2022-12-29T01:38:59;9.10;37.00
7700;DHT22;3892;47.794;19.126;2022-12-29T01:41:29;9.10;36.90
7700;DHT22;3892;47.794;19.126;2022-12-29T01:43:58;9.10;37.00
7700;DHT22;3892;47.794;19.126;2022-12-29T01:46:29;9.10;37.00
7700;DHT22;3892;47.794;19.126;2022-12-29T01:49:02;9.10;36.90
7700;DHT22;3892;47.794;19.126;2022-12-29T01:51:33;9.20;37.00
7700;DHT22;3892;47.794;19.126;2022-12-29T01:54:09;9.20;36.70
7700;DHT22;3892;47.794;19.126;2022-12-29T01:56:39;9.30;36.60
7700;DHT22;3892;47.794;19.126;2022-12-29T01:59:10;9.20;36.10
7700;DHT22;3892;47.794;19.126;2022-12-29T02:01:38;9.30;36.10
7700;DHT22;3892;47.794;19.126;2022-12-29T02:04:06;9.30;36.00
7700;DHT22;3892;47.794;19.126;2022-12-29T02:06:38;9.30;35.90
7700;DHT22;3892;47.794;19.126;2022-12-29T02:09:06;9.30;35.90
7700;DHT22;3892;47.794;19.126;2022-12-29T02:11:35;9.30;36.00
7700;DHT22;3892;47.794;19.126;2022-12-29T02:14:09;9.30;35.90
7700;DHT22;3892;47.794;19.126;2022-12-29T02:16:45;9.10;36.10
7700;DHT22;3892;47.794;19.126;2022-12-29T02:19:46;9.10;36.40
7700;DHT22;3892;47.794;19.126;2022-12-29T02:22:22;9.10;36.60
7700;DHT22;3892;47.794;19.126;2022-12-29T02:25:28;9.10;36.70
7700;DHT22;3892;47.794;19.126;2022-12-29T02:31:15;9.10;36.70
7700;DHT22;3892;47.794;19.126;2022-12-29T02:33:54;9.00;36.80
7700;DHT22;3892;47.794;19.126;2022-12-29T02:36:29;8.90;37.00
7700;DHT22;3892;47.794;19.126;2022-12-29T02:39:04;8.90;37.20
7700;DHT22;3892;47.794;19.126;2022-12-29T02:41:33;8.90;37.20
7700;DHT22;3892;47.794;19.126;2022-12-29T02:44:08;8.90;37.10
7700;DHT22;3892;47.794;19.126;2022-12-29T02:46:44;8.90;37.00
7700;DHT22;3892;47.794;19.126;2022-12-29T02:49:13;8.90;37.10
7700;DHT22;3892;47.794;19.126;2022-12-29T02:51:50;8.90;37.00
7700;DHT22;3892;47.794;19.126;2022-12-29T02:54:19;9.00;37.10
7700;DHT22;3892;47.794;19.126;2022-12-29T02:57:10;9.00;37.00
7700;DHT22;3892;47.794;19.126;2022-12-29T02:59:37;9.00;36.80
7700;DHT22;3892;47.794;19.126;2022-12-29T03:02:20;9.10;36.60
7700;DHT22;3892;47.794;19.126;2022-12-29T03:05:18;9.00;36.60
7700;DHT22;3892;47.794;19.126;2022-12-29T03:07:51;9.00;36.60
7700;DHT22;3892;47.794;19.126;2022-12-29T03:10:30;9.00;36.50
7700;DHT22;3892;47.794;19.126;2022-12-29T03:13:04;9.00;36.30
7700;DHT22;3892;47.794;19.126;2022-12-29T03:15:58;9.00;36.10
7700;DHT22;3892;47.794;19.126;2022-12-29T03:18:40;9.00;36.10
7700;DHT22;3892;47.794;19.126;2022-12-29T03:21:11;9.00;36.20
7700;DHT22;3892;47.794;19.126;2022-12-29T03:23:43;8.90;36.20
7700;DHT22;3892;47.794;19.126;2022-12-29T03:26:15;8.80;36.40
7700;DHT22;3892;47.794;19.126;2022-12-29T03:28:48;8.70;36.60
7700;DHT22;3892;47.794;19.126;2022-12-29T03:31:23;8.70;36.80
7700;DHT22;3892;47.794;19.126;2022-12-29T03:33:55;8.70;36.80
7700;DHT22;3892;47.794;19.126;2022-12-29T03:36:27;8.70;36.80
7700;DHT22;3892;47.794;19.126;2022-12-29T03:39:01;8.70;36.80
7700;DHT22;3892;47.794;19.126;2022-12-29T03:41:31;8.70;36.80
7700;DHT22;3892;47.794;19.126;2022-12-29T03:44:02;8.60;36.80
7700;DHT22;3892;47.794;19.126;2022-12-29T03:46:29;8.60;37.00
7700;DHT22;3892;47.794;19.126;2022-12-29T03:48:57;8.60;37.10
7700;DHT22;3892;47.794;19.126;2022-12-29T03:51:25;8.60;37.10
7700;DHT22;3892;47.794;19.126;2022-12-29T03:53:53;8.60;37.20
7700;DHT22;3892;47.794;19.126;2022-12-29T03:56:21;8.60;37.30
7700;DHT22;3892;47.794;19.126;2022-12-29T03:58:49;8.50;37.40
7700;DHT22;3892;47.794;19.126;2022-12-29T04:01:22;8.50;37.60
7700;DHT22;3892;47.794;19.126;2022-12-29T04:03:49;8.40;38.40
7700;DHT22;3892;47.794;19.126;2022-12-29T04:06:18;8.30;37.90
7700;DHT22;3892;47.794;19.126;2022-12-29T04:08:49;8.40;38.00
7700;DHT22;3892;47.794;19.126;2022-12-29T04:11:16;8.40;38.00
7700;DHT22;3892;47.794;19.126;2022-12-29T04:13:43;8.30;38.00
7700;DHT22;3892;47.794;19.126;2022-12-29T04:16:14;8.30;38.10
7700;DHT22;3892;47.794;19.126;2022-12-29T04:18:41;8.40;38.20
7700;DHT22;3892;47.794;19.126;2022-12-29T04:21:09;8.30;38.20
7700;DHT22;3892;47.794;19.126;2022-12-29T04:23:40;8.30;38.40
7700;DHT22;3892;47.794;19.126;2022-12-29T04:26:13;8.30;38.30
7700;DHT22;3892;47.794;19.126;2022-12-29T04:29:07;8.30;38.30
7700;DHT22;3892;47.794;19.126;2022-12-29T04:31:54;8.30;38.40
7700;DHT22;3892;47.794;19.126;2022-12-29T04:34:21;8.40;38.20
7700;DHT22;3892;47.794;19.126;2022-12-29T04:36:49;8.40;38.10
7700;DHT22;3892;47.794;19.126;2022-12-29T04:39:18;8.50;38.00
7700;DHT22;3892;47.794;19.126;2022-12-29T04:41:45;8.60;37.70
7700;DHT22;3892;47.794;19.126;2022-12-29T04:44:17;8.60;37.50
7700;DHT22;3892;47.794;19.126;2022-12-29T04:47:00;8.60;37.50
7700;DHT22;3892;47.794;19.126;2022-12-29T04:49:49;8.50;37.40
7700;DHT22;3892;47.794;19.126;2022-12-29T04:52:35;8.50;37.50
7700;DHT22;3892;47.794;19.126;2022-12-29T04:55:05;8.50;37.50
7700;DHT22;3892;47.794;19.126;2022-12-29T04:57:33;8.50;37.70
7700;DHT22;3892;47.794;19.126;2022-12-29T05:00:01;8.40;37.70
7700;DHT22;3892;47.794;19.126;2022-12-29T05:02:29;8.30;37.70
7700;DHT22;3892;47.794;19.126;2022-12-29T05:04:56;8.40;37.80
7700;DHT22;3892;47.794;19.126;2022-12-29T05:07:24;8.40;37.70
7700;DHT22;3892;47.794;19.126;2022-12-29T05:09:52;8.40;37.80
7700;DHT22;3892;47.794;19.126;2022-12-29T05:12:21;8.40;37.80
7700;DHT22;3892;47.794;19.126;2022-12-29T05:14:54;8.40;37.80
7700;DHT22;3892;47.794;19.126;2022-12-29T05:17:21;8.40;37.70
7700;DHT22;3892;47.794;19.126;2022-12-29T05:19:48;8.40;37.70
7700;DHT22;3892;47.794;19.126;2022-12-29T05:22:16;8.50;37.90
7700;DHT22;3892;47.794;19.126;2022-12-29T05:24:43;8.40;37.70
7700;DHT22;3892;47.794;19.126;2022-12-29T05:27:10;8.30;37.70
7700;DHT22;3892;47.794;19.126;2022-12-29T05:29:53;8.30;37.80
7700;DHT22;3892;47.794;19.126;2022-12-29T05:32:20;8.20;37.90
7700;DHT22;3892;47.794;19.126;2022-12-29T05:34:47;8.30;38.00
7700;DHT22;3892;47.794;19.126;2022-12-29T05:37:17;8.30;38.00
7700;DHT22;3892;47.794;19.126;2022-12-29T05:39:44;8.40;37.90
7700;DHT22;3892;47.794;19.126;2022-12-29T05:42:12;8.40;38.00
7700;DHT22;3892;47.794;19.126;2022-12-29T05:44:52;8.30;37.70
7700;DHT22;3892;47.794;19.126;2022-12-29T05:47:42;8.30;37.90
7700;DHT22;3892;47.794;19.126;2022-12-29T05:50:23;8.20;38.00
7700;DHT22;3892;47.794;19.126;2022-12-29T05:53:10;8.20;38.00
7700;DHT22;3892;47.794;19.126;2022-12-29T05:55:38;8.30;37.90
7700;DHT22;3892;47.794;19.126;2022-12-29T05:58:05;8.20;37.90
7700;DHT22;3892;47.794;19.126;2022-12-29T06:00:34;8.20;38.00
7700;DHT22;3892;47.794;19.126;2022-12-29T06:03:01;8.30;38.10
7700;DHT22;3892;47.794;19.126;2022-12-29T06:05:28;8.30;38.00
7700;DHT22;3892;47.794;19.126;2022-12-29T06:07:56;8.30;37.80
7700;DHT22;3892;47.794;19.126;2022-12-29T06:10:24;8.40;37.60
7700;DHT22;3892;47.794;19.126;2022-12-29T06:13:04;8.30;37.50
7700;DHT22;3892;47.794;19.126;2022-12-29T06:15:36;8.30;37.70
7700;DHT22;3892;47.794;19.126;2022-12-29T06:18:06;8.30;37.80
7700;DHT22;3892;47.794;19.126;2022-12-29T06:20:34;8.30;37.70
7700;DHT22;3892;47.794;19.126;2022-12-29T06:23:04;8.40;37.60
7700;DHT22;3892;47.794;19.126;2022-12-29T06:25:31;8.30;37.60
7700;DHT22;3892;47.794;19.126;2022-12-29T06:27:59;8.20;37.80
7700;DHT22;3892;47.794;19.126;2022-12-29T06:30:27;8.20;37.90
7700;DHT22;3892;47.794;19.126;2022-12-29T06:32:55;8.10;37.90
7700;DHT22;3892;47.794;19.126;2022-12-29T06:35:24;8.00;37.90
7700;DHT22;3892;47.794;19.126;2022-12-29T06:37:51;8.00;38.10
7700;DHT22;3892;47.794;19.126;2022-12-29T06:40:19;7.90;38.10
7700;DHT22;3892;47.794;19.126;2022-12-29T06:43:05;8.00;38.10
7700;DHT22;3892;47.794;19.126;2022-12-29T06:45:51;8.00;38.00
7700;DHT22;3892;47.794;19.126;2022-12-29T06:48:19;8.10;38.00
7700;DHT22;3892;47.794;19.126;2022-12-29T06:50:46;8.10;37.80
7700;DHT22;3892;47.794;19.126;2022-12-29T06:53:14;8.20;37.80
7700;DHT22;3892;47.794;19.126;2022-12-29T06:55:41;8.20;37.70
7700;DHT22;3892;47.794;19.126;2022-12-29T06:58:09;8.20;37.60
7700;DHT22;3892;47.794;19.126;2022-12-29T07:00:36;8.30;37.60
7700;DHT22;3892;47.794;19.126;2022-12-29T07:03:03;8.30;37.50
7700;DHT22;3892;47.794;19.126;2022-12-29T07:05:34;8.30;37.50
7700;DHT22;3892;47.794;19.126;2022-12-29T07:08:01;8.30;37.50
7700;DHT22;3892;47.794;19.126;2022-12-29T07:10:29;8.20;37.50
7700;DHT22;3892;47.794;19.126;2022-12-29T07:12:56;8.20;37.60
7700;DHT22;3892;47.794;19.126;2022-12-29T07:15:23;8.20;37.70
7700;DHT22;3892;47.794;19.126;2022-12-29T07:17:50;8.20;37.60
7700;DHT22;3892;47.794;19.126;2022-12-29T07:20:17;8.20;37.60
7700;DHT22;3892;47.794;19.126;2022-12-29T07:22:46;8.20;37.50
7700;DHT22;3892;47.794;19.126;2022-12-29T07:25:13;8.30;37.60
7700;DHT22;3892;47.794;19.126;2022-12-29T07:27:40;8.40;37.60
7700;DHT22;3892;47.794;19.126;2022-12-29T07:30:09;8.40;37.60
7700;DHT22;3892;47.794;19.126;2022-12-29T07:32:36;8.50;37.90
7700;DHT22;3892;47.794;19.126;2022-12-29T07:35:03;8.50;37.90
7700;DHT22;3892;47.794;19.126;2022-12-29T07:37:30;8.50;37.60
7700;DHT22;3892;47.794;19.126;2022-12-29T07:39:59;8.60;37.50
7700;DHT22;3892;47.794;19.126;2022-12-29T07:42:26;8.60;37.50
7700;DHT22;3892;47.794;19.126;2022-12-29T07:44:58;8.60;37.40
7700;DHT22;3892;47.794;19.126;2022-12-29T07:47:29;8.60;37.30
7700;DHT22;3892;47.794;19.126;2022-12-29T07:49:56;8.60;37.30
7700;DHT22;3892;47.794;19.126;2022-12-29T07:52:23;8.70;37.30
7700;DHT22;3892;47.794;19.126;2022-12-29T07:54:50;8.80;37.30
7700;DHT22;3892;47.794;19.126;2022-12-29T07:57:18;8.70;37.20
7700;DHT22;3892;47.794;19.126;2022-12-29T07:59:45;8.70;37.30
7700;DHT22;3892;47.794;19.126;2022-12-29T08:02:12;8.70;37.50
7700;DHT22;3892;47.794;19.126;2022-12-29T08:04:39;8.60;38.10
7700;DHT22;3892;47.794;19.126;2022-12-29T08:07:06;8.70;37.70
7700;DHT22;3892;47.794;19.126;2022-12-29T08:09:33;8.80;37.70
7700;DHT22;3892;47.794;19.126;2022-12-29T08:12:00;8.80;37.70
7700;DHT22;3892;47.794;19.126;2022-12-29T08:14:29;8.80;37.60
7700;DHT22;3892;47.794;19.126;2022-12-29T08:16:56;8.80;37.50
7700;DHT22;3892;47.794;19.126;2022-12-29T08:19:23;8.80;37.40
7700;DHT22;3892;47.794;19.126;2022-12-29T08:21:50;8.80;37.30
7700;DHT22;3892;47.794;19.126;2022-12-29T08:24:17;8.80;37.30
7700;DHT22;3892;47.794;19.126;2022-12-29T08:26:44;8.90;37.50
7700;DHT22;3892;47.794;19.126;2022-12-29T08:29:11;8.90;37.30
7700;DHT22;3892;47.794;19.126;2022-12-29T08:31:39;9.00;37.30
7700;DHT22;3892;47.794;19.126;2022-12-29T08:34:06;9.10;37.30
7700;DHT22;3892;47.794;19.126;2022-12-29T08:36:33;9.20;37.30
7700;DHT22;3892;47.794;19.126;2022-12-29T08:39:00;9.20;37.20
7700;DHT22;3892;47.794;19.126;2022-12-29T08:41:28;9.20;36.90
7700;DHT22;3892;47.794;19.126;2022-12-29T08:43:55;9.20;37.10
7700;DHT22;3892;47.794;19.126;2022-12-29T08:46:22;9.40;37.20
7700;DHT22;3892;47.794;19.126;2022-12-29T08:48:50;9.40;36.60
7700;DHT22;3892;47.794;19.126;2022-12-29T08:51:17;9.50;36.90
7700;DHT22;3892;47.794;19.126;2022-12-29T08:53:44;9.60;36.70
7700;DHT22;3892;47.794;19.126;2022-12-29T08:56:11;9.70;37.00
7700;DHT22;3892;47.794;19.126;2022-12-29T08:58:45;9.90;37.00
7700;DHT22;3892;47.794;19.126;2022-12-29T09:01:12;10.20;35.90
7700;DHT22;3892;47.794;19.126;2022-12-29T09:03:39;10.70;35.90
7700;DHT22;3892;47.794;19.126;2022-12-29T09:06:08;10.90;34.80
7700;DHT22;3892;47.794;19.126;2022-12-29T09:08:35;11.30;34.70
7700;DHT22;3892;47.794;19.126;2022-12-29T09:11:06;11.80;34.60
7700;DHT22;3892;47.794;19.126;2022-12-29T09:13:34;12.50;34.50
7700;DHT22;3892;47.794;19.126;2022-12-29T09:16:01;13.00;33.00
7700;DHT22;3892;47.794;19.126;2022-12-29T09:18:29;13.30;32.30
7700;DHT22;3892;47.794;19.126;2022-12-29T09:20:56;13.70;33.00
7700;DHT22;3892;47.794;19.126;2022-12-29T09:23:26;14.20;31.90
7700;DHT22;3892;47.794;19.126;2022-12-29T09:25:53;14.60;31.30
7700;DHT22;3892;47.794;19.126;2022-12-29T09:28:21;15.10;31.20
7700;DHT22;3892;47.794;19.126;2022-12-29T09:30:49;15.60;71.30
7700;DHT22;3892;47.794;19.126;2022-12-29T09:33:16;16.10;65.30
7700;DHT22;3892;47.794;19.126;2022-12-29T10:24:12;20.60;31.90
7700;DHT22;3892;47.794;19.126;2022-12-29T10:26:42;20.60;33.00
7700;DHT22;3892;47.794;19.126;2022-12-29T10:29:14;20.70;33.40
7700;DHT22;3892;47.794;19.126;2022-12-29T10:31:44;20.90;33.30
7700;DHT22;3892;47.794;19.126;2022-12-29T10:34:18;20.50;32.60
7700;DHT22;3892;47.794;19.126;2022-12-29T10:36:48;20.40;33.30
7700;DHT22;3892;47.794;19.126;2022-12-29T10:39:21;20.30;33.40
7700;DHT22;3892;47.794;19.126;2022-12-29T10:41:55;20.00;33.60
7700;DHT22;3892;47.794;19.126;2022-12-29T10:44:25;19.70;33.20
7700;DHT22;3892;47.794;19.126;2022-12-29T10:46:59;19.70;33.40
7700;DHT22;3892;47.794;19.126;2022-12-29T10:49:28;19.70;33.50
7700;DHT22;3892;47.794;19.126;2022-12-29T10:51:59;19.40;33.20
7700;DHT22;3892;47.794;19.126;2022-12-29T10:54:31;19.60;33.80
7700;DHT22;3892;47.794;19.126;2022-12-29T10:57:03;19.90;34.00
7700;DHT22;3892;47.794;19.126;2022-12-29T10:59:33;20.20;33.70
7700;DHT22;3892;47.794;19.126;2022-12-29T11:02:19;20.10;33.20
7700;DHT22;3892;47.794;19.126;2022-12-29T11:04:57;20.30;33.00
7700;DHT22;3892;47.794;19.126;2022-12-29T11:07:28;20.20;33.00
7700;DHT22;3892;47.794;19.126;2022-12-29T11:10:16;20.30;33.50
7700;DHT22;3892;47.794;19.126;2022-12-29T11:12:56;20.10;33.30
7700;DHT22;3892;47.794;19.126;2022-12-29T11:15:23;20.30;33.50
7700;DHT22;3892;47.794;19.126;2022-12-29T11:17:56;20.30;33.10
7700;DHT22;3892;47.794;19.126;2022-12-29T11:20:32;20.20;33.20
7700;DHT22;3892;47.794;19.126;2022-12-29T11:23:00;20.00;32.70
7700;DHT22;3892;47.794;19.126;2022-12-29T11:25:28;20.00;33.30
7700;DHT22;3892;47.794;19.126;2022-12-29T11:27:59;20.10;33.70
7700;DHT22;3892;47.794;19.126;2022-12-29T11:30:29;19.60;32.60
7700;DHT22;3892;47.794;19.126;2022-12-29T11:32:57;19.20;33.50
7700;DHT22;3892;47.794;19.126;2022-12-29T11:35:34;19.00;33.70
7700;DHT22;3892;47.794;19.126;2022-12-29T11:38:02;18.90;34.20
7700;DHT22;3892;47.794;19.126;2022-12-29T11:40:29;18.60;33.80
7700;DHT22;3892;47.794;19.126;2022-12-29T11:43:00;18.50;34.10
7700;DHT22;3892;47.794;19.126;2022-12-29T11:45:30;18.40;34.20
7700;DHT22;3892;47.794;19.126;2022-12-29T11:48:01;18.30;34.10
7700;DHT22;3892;47.794;19.126;2022-12-29T11:50:36;18.10;33.90
7700;DHT22;3892;47.794;19.126;2022-12-29T11:53:07;18.10;34.30
7700;DHT22;3892;47.794;19.126;2022-12-29T11:55:40;18.00;34.20
7700;DHT22;3892;47.794;19.126;2022-12-29T11:58:17;17.70;34.10
7700;DHT22;3892;47.794;19.126;2022-12-29T12:00:46;17.30;34.50
7700;DHT22;3892;47.794;19.126;2022-12-29T12:03:18;16.90;35.00
7700;DHT22;3892;47.794;19.126;2022-12-29T12:05:48;16.40;40.90
7700;DHT22;3892;47.794;19.126;2022-12-29T12:08:20;16.00;46.70
7700;DHT22;3892;47.794;19.126;2022-12-29T12:10:54;15.70;52.40
7700;DHT22;3892;47.794;19.126;2022-12-29T12:13:29;16.00;51.60
7700;DHT22;3892;47.794;19.126;2022-12-29T12:16:02;16.60;49.40
7700;DHT22;3892;47.794;19.126;2022-12-29T12:18:39;17.10;47.40
7700;DHT22;3892;47.794;19.126;2022-12-29T12:21:13;17.30;44.90
7700;DHT22;3892;47.794;19.126;2022-12-29T12:24:10;17.10;44.00
7700;DHT22;3892;47.794;19.126;2022-12-29T12:26:47;17.00;44.20
7700;DHT22;3892;47.794;19.126;2022-12-29T12:29:22;17.00;43.70
7700;DHT22;3892;47.794;19.126;2022-12-29T12:31:55;16.90;43.30
7700;DHT22;3892;47.794;19.126;2022-12-29T12:34:29;16.80;42.90
7700;DHT22;3892;47.794;19.126;2022-12-29T12:37:06;16.80;42.80
7700;DHT22;3892;47.794;19.126;2022-12-29T12:39:45;16.80;42.60
7700;DHT22;3892;47.794;19.126;2022-12-29T12:42:25;16.70;42.30
7700;DHT22;3892;47.794;19.126;2022-12-29T12:45:06;16.70;42.00
7700;DHT22;3892;47.794;19.126;2022-12-29T12:47:51;16.70;42.40
7700;DHT22;3892;47.794;19.126;2022-12-29T12:50:35;16.70;42.20
7700;DHT22;3892;47.794;19.126;2022-12-29T12:53:16;16.80;41.90
7700;DHT22;3892;47.794;19.126;2022-12-29T12:55:54;16.90;41.70
7700;DHT22;3892;47.794;19.126;2022-12-29T12:58:28;17.10;42.30
7700;DHT22;3892;47.794;19.126;2022-12-29T13:01:14;17.30;41.90
7700;DHT22;3892;47.794;19.126;2022-12-29T13:03:54;17.40;41.50
7700;DHT22;3892;47.794;19.126;2022-12-29T13:06:35;17.10;40.80
7700;DHT22;3892;47.794;19.126;2022-12-29T13:09:25;17.00;41.10
7700;DHT22;3892;47.794;19.126;2022-12-29T13:12:06;16.90;41.60
7700;DHT22;3892;47.794;19.126;2022-12-29T13:14:46;16.90;41.90
7700;DHT22;3892;47.794;19.126;2022-12-29T13:17:25;16.60;40.90
7700;DHT22;3892;47.794;19.126;2022-12-29T13:19:56;16.40;41.50
7700;DHT22;3892;47.794;19.126;2022-12-29T13:22:32;16.10;41.70
7700;DHT22;3892;47.794;19.126;2022-12-29T13:25:18;16.00;42.20
7700;DHT22;3892;47.794;19.126;2022-12-29T13:27:51;15.60;42.60
7700;DHT22;3892;47.794;19.126;2022-12-29T13:30:21;15.30;42.50
7700;DHT22;3892;47.794;19.126;2022-12-29T13:32:59;15.10;46.20
7700;DHT22;3892;47.794;19.126;2022-12-29T13:35:41;14.90;46.60
7700;DHT22;3892;47.794;19.126;2022-12-29T13:38:21;14.70;47.00
7700;DHT22;3892;47.794;19.126;2022-12-29T13:40:54;14.50;48.20
7700;DHT22;3892;47.794;19.126;2022-12-29T13:43:22;14.30;48.90
7700;DHT22;3892;47.794;19.126;2022-12-29T13:45:57;14.30;50.00
7700;DHT22;3892;47.794;19.126;2022-12-29T13:48:36;14.20;50.20
7700;DHT22;3892;47.794;19.126;2022-12-29T13:51:05;14.00;50.90
7700;DHT22;3892;47.794;19.126;2022-12-29T13:53:40;14.00;52.50
7700;DHT22;3892;47.794;19.126;2022-12-29T14:01:24;13.40;53.10
7700;DHT22;3892;47.794;19.126;2022-12-29T14:03:57;13.30;55.40
7700;DHT22;3892;47.794;19.126;2022-12-29T14:06:26;13.30;39.10
7700;DHT22;3892;47.794;19.126;2022-12-29T14:08:56;13.20;39.70
7700;DHT22;3892;47.794;19.126;2022-12-29T14:11:30;13.00;46.00
7700;DHT22;3892;47.794;19.126;2022-12-29T14:13:58;12.90;41.30
7700;DHT22;3892;47.794;19.126;2022-12-29T14:16:29;12.80;39.80
7700;DHT22;3892;47.794;19.126;2022-12-29T14:19:05;12.70;38.90
7700;DHT22;3892;47.794;19.126;2022-12-29T14:21:33;12.60;38.20
7700;DHT22;3892;47.794;19.126;2022-12-29T14:24:35;12.60;38.40
7700;DHT22;3892;47.794;19.126;2022-12-29T14:33:28;12.10;40.10
7700;DHT22;3892;47.794;19.126;2022-12-29T14:36:20;12.10;36.90
7700;DHT22;3892;47.794;19.126;2022-12-29T14:38:48;12.10;39.30
7700;DHT22;3892;47.794;19.126;2022-12-29T14:44:16;12.10;38.10
7700;DHT22;3892;47.794;19.126;2022-12-29T14:46:54;12.10;37.20
7700;DHT22;3892;47.794;19.126;2022-12-29T14:49:24;12.10;37.00
7700;DHT22;3892;47.794;19.126;2022-12-29T14:51:54;12.00;36.40
7700;DHT22;3892;47.794;19.126;2022-12-29T14:54:50;11.90;36.90
7700;DHT22;3892;47.794;19.126;2022-12-29T14:57:34;11.70;36.90
7700;DHT22;3892;47.794;19.126;2022-12-29T15:00:15;11.70;36.10
7700;DHT22;3892;47.794;19.126;2022-12-29T15:02:47;11.60;34.90
7700;DHT22;3892;47.794;19.126;2022-12-29T15:05:34;11.60;34.40
7700;DHT22;3892;47.794;19.126;2022-12-29T15:08:03;11.60;34.10
7700;DHT22;3892;47.794;19.126;2022-12-29T15:10:39;11.50;33.90
7700;DHT22;3892;47.794;19.126;2022-12-29T15:13:16;11.50;34.00
7700;DHT22;3892;47.794;19.126;2022-12-29T15:15:43;11.40;34.10
7700;DHT22;3892;47.794;19.126;2022-12-29T15:18:24;11.20;34.20
7700;DHT22;3892;47.794;19.126;2022-12-29T15:20:54;11.10;34.40
7700;DHT22;3892;47.794;19.126;2022-12-29T15:23:23;11.00;34.50
7700;DHT22;3892;47.794;19.126;2022-12-29T15:25:54;11.00;34.80
7700;DHT22;3892;47.794;19.126;2022-12-29T15:28:22;10.90;34.80
7700;DHT22;3892;47.794;19.126;2022-12-29T15:30:51;10.90;34.90
7700;DHT22;3892;47.794;19.126;2022-12-29T15:33:20;10.80;34.80
7700;DHT22;3892;47.794;19.126;2022-12-29T15:35:50;10.70;34.90
7700;DHT22;3892;47.794;19.126;2022-12-29T15:38:23;10.60;34.90
7700;DHT22;3892;47.794;19.126;2022-12-29T15:40:56;10.40;35.00
7700;DHT22;3892;47.794;19.126;2022-12-29T15:43:40;10.30;35.20
7700;DHT22;3892;47.794;19.126;2022-12-29T15:46:11;10.20;35.50
7700;DHT22;3892;47.794;19.126;2022-12-29T15:48:39;10.20;35.60
7700;DHT22;3892;47.794;19.126;2022-12-29T15:51:17;10.20;35.60
7700;DHT22;3892;47.794;19.126;2022-12-29T15:53:48;10.30;35.60
7700;DHT22;3892;47.794;19.126;2022-12-29T15:56:17;10.30;35.60
7700;DHT22;3892;47.794;19.126;2022-12-29T15:58:46;10.30;35.60
7700;DHT22;3892;47.794;19.126;2022-12-29T16:01:19;10.20;35.50
7700;DHT22;3892;47.794;19.126;2022-12-29T16:03:47;10.20;35.60
7700;DHT22;3892;47.794;19.126;2022-12-29T16:06:29;10.30;35.50
7700;DHT22;3892;47.794;19.126;2022-12-29T16:09:00;10.30;35.50
7700;DHT22;3892;47.794;19.126;2022-12-29T16:11:32;10.20;35.60
7700;DHT22;3892;47.794;19.126;2022-12-29T16:14:01;10.10;35.70
7700;DHT22;3892;47.794;19.126;2022-12-29T16:16:30;10.00;35.90
7700;DHT22;3892;47.794;19.126;2022-12-29T16:19:09;10.00;36.50
7700;DHT22;3892;47.794;19.126;2022-12-29T16:21:38;10.10;37.20
7700;DHT22;3892;47.794;19.126;2022-12-29T16:24:12;10.10;37.70
7700;DHT22;3892;47.794;19.126;2022-12-29T16:26:47;10.20;38.20
7700;DHT22;3892;47.794;19.126;2022-12-29T16:29:17;10.20;38.20
7700;DHT22;3892;47.794;19.126;2022-12-29T16:31:52;10.20;37.90
7700;DHT22;3892;47.794;19.126;2022-12-29T16:34:29;10.20;38.10
7700;DHT22;3892;47.794;19.126;2022-12-29T16:36:57;10.20;38.30
7700;DHT22;3892;47.794;19.126;2022-12-29T16:39:34;10.20;38.30
7700;DHT22;3892;47.794;19.126;2022-12-29T16:42:33;10.10;38.50
7700;DHT22;3892;47.794;19.126;2022-12-29T16:48:18;10.10;39.10
7700;DHT22;3892;47.794;19.126;2022-12-29T16:50:47;10.10;40.10
7700;DHT22;3892;47.794;19.126;2022-12-29T16:53:20;10.10;41.40
7700;DHT22;3892;47.794;19.126;2022-12-29T16:55:49;10.00;42.90
7700;DHT22;3892;47.794;19.126;2022-12-29T16:58:19;10.00;44.00
7700;DHT22;3892;47.794;19.126;2022-12-29T17:00:48;10.00;44.30
7700;DHT22;3892;47.794;19.126;2022-12-29T17:03:15;10.00;44.10
7700;DHT22;3892;47.794;19.126;2022-12-29T17:05:42;9.80;47.20
7700;DHT22;3892;47.794;19.126;2022-12-29T17:08:18;9.90;47.70
7700;DHT22;3892;47.794;19.126;2022-12-29T17:10:51;9.70;50.40
7700;DHT22;3892;47.794;19.126;2022-12-29T17:13:36;9.80;52.50
7700;DHT22;3892;47.794;19.126;2022-12-29T17:16:04;9.50;50.60
7700;DHT22;3892;47.794;19.126;2022-12-29T17:18:33;9.60;45.60
7700;DHT22;3892;47.794;19.126;2022-12-29T17:21:00;9.60;43.80
7700;DHT22;3892;47.794;19.126;2022-12-29T17:23:27;9.50;43.20
7700;DHT22;3892;47.794;19.126;2022-12-29T17:25:57;9.50;42.90
7700;DHT22;3892;47.794;19.126;2022-12-29T17:28:26;9.50;42.20
7700;DHT22;3892;47.794;19.126;2022-12-29T17:30:59;9.60;41.00
7700;DHT22;3892;47.794;19.126;2022-12-29T17:33:29;9.50;40.80
7700;DHT22;3892;47.794;19.126;2022-12-29T17:35:56;9.50;39.50
7700;DHT22;3892;47.794;19.126;2022-12-29T17:38:27;9.50;39.50